WARM SPRINGS (USACE) (WRS)

Elevation: 440' · RUSSIAN R basin · Operator: US Army Corps of Engineers

Provisional data, subject to change.
Query executed Thursday at 17:31:59   clock

Select a sensor type for a plot of data.
Note: Reservoir Flows are daily averages.

Earlier

Date RES ELE    STORAGE    RES CHG    TOC STO    OUTFLOW    INFLOW    PPT INC    TEMP MN    TEMP MX    EVP PAN   
 FEET   AF   AF   AF   CFS   CFS   INCHES   DEG F   DEG F   INCHES  
06/25/2014 420.64 173290 -290 245000 117 -17 0.00 13 29 0.21
06/26/2014 420.50 173000 -290 245000 122 -9 0.00 17 29 0.25
06/27/2014 420.36 172710 -290 245000 123 -8 0.00 13 31 0.26
06/28/2014 420.21 172390 -320 245000 123 -17 0.00 16 35 0.29
06/29/2014 420.07 172100 -290 245000 122 -5 0.00 18 41 0.31
06/30/2014 419.91 171770 -330 245000 122 -25 0.00 15 43 0.31
07/01/2014 419.76 171460 -310 245000 124 -16 0.00 12 31 0.25
07/02/2014 419.62 171170 -290 245000 122 -8 0.00 13 33 0.25
07/03/2014 419.47 170860 -310 245000 132 -7 0.00 10 36 0.26
07/04/2014 419.31 170520 -340 245000 139 -11 0.00 10 34 0.26
07/05/2014 419.15 170190 -330 245000 139 -9 0.00 10 37 0.27
07/06/2014 418.99 169860 -330 245000 139 -10 0.00 8 38 0.26
07/07/2014 418.84 169550 -310 245000 146 2 0.00 11 34 0.18
07/08/2014 418.67 169200 -350 245000 153 -7 0.00 14 35 0.25
07/09/2014 418.51 168880 -320 245000 152 2 0.00 13 31 0.25
07/10/2014 418.35 168550 -330 245000 151 -0 0.00 14 29 0.21
07/11/2014 418.19 168220 -330 245000 144 -6 0.00 14 28 0.24
07/12/2014 418.04 167910 -310 245000 133 -6 0.00 12 32 0.25
07/13/2014 417.91 167650 -260 245000 132 17 0.00 12 42 0.29
07/14/2014 417.76 167340 -310 245000 125 -12 0.00 16 41 0.27
07/15/2014 417.63 167070 -270 245000 -- -- -- -- -- --
07/16/2014 417.51 166830 -240 245000 116 6 0.00 16 28 0.19
07/17/2014 417.38 166570 -260 245000 116 -4 0.00 15 29 0.21
07/18/2014 417.26 166320 -250 245000 116 9 0.00 15 29 0.24
07/19/2014 417.13 166060 -260 245000 116 -2 0.00 14 32 0.24
07/20/2014 417.01 165810 -250 245000 116 -0 0.00 14 24 0.09
07/21/2014 416.88 165550 -260 245000 116 -5 0.00 15 28 0.18
07/22/2014 416.76 165310 -240 245000 116 8 0.00 14 31 0.22
07/23/2014 416.64 165060 -250 245000 116 9 0.00 14 34 0.24
07/24/2014 -- -- -- -- -- -- -- -- -- --

Later | Latest

Warning! This data is preliminary and subject to revision.

Download Data Now Download Data Now | Show WRS Map | Plot WRS Data | 1 Month WRS Data | Real-Time WRS Data | WRS Info